Aviation Digital Data Service (ADDS)

Output produced by METARs form (2051 UTC 24 June 2018)
found at http://www.aviationweather.gov/adds/metars/
 
LYPG 242030Z 02008KT 9999 FEW050 22/06 Q1014 NOSIG
TAF LYPG 241700Z 2418/2518 36006KT 9999 FEW040 TX27/2514Z TN15/2503Z
       
LYTV 242000Z VRB01KT CAVOK 17/12 Q1014
TAF LYTV 241700Z 2418/2518 02014KT CAVOK TX28/2513Z TN16/2503Z 
     BECMG 2508/2510 24008KT